Pagina principale
METAR-TAF:

METAR-TAF

Aeroporti :

Aeroporto di Trieste-Ronchi dei Legionari

Trieste / Ronchi dei Legionari, Italia

latitudine: 45-49N, longitudine: 013-29E, altezza: 12 m

Osservazione

Il bollettino è stato emesso 16 minuti fa, alle 16:50 UTC
Vento 6 kt da ovest/sud-ovest
Temperature 20°C
Umidità 49%
Pressione 1014 hPa
Visibilità 10 km o più

METAR: LIPQ 311650Z AUTO 25006KT 9999 // SCT085/// BKN110/// 20/09 Q1014

Ora: 19:06 (17:06 UTC)

Previsione

Il bollettino è stato emesso 6 ore e 6 minuti fa, alle 11:00 UTC
Previsione valida dal 31 alle 12 UTC al 01 alle 12 UTC
Vento 10 kt da est
Visibilità 10 km o più
Nubi sparse ad un'altezza di 6000 ft
Evoluzione graduale
dal 31 alle 16 UTC al 31 alle 18 UTC
Vento 4 kt da direzioni variabili

TAF: LIPQ 311100Z 3112/0112 10010KT 9999 SCT060 BECMG 3116/3118 VRB04KT

Osservazioni e previsioni meteorologiche di più di 4000 aeroporti (messaggi METAR e TAF).

Le stazioni disponibili sono rappresentate dai dischi gialli e rossi sulla carta.

Puntare il mouse per vedere il nome della stazione.

Clicca sopra per visualizzare le osservazioni e previsioni meteorologiche.

Per cambiare la mappa : fare clic sui pulsanti verdi con una croce nera per ingrandire, il pulsante verde con un trattino per diminuire, o sulla freccia verde per le mappe adiacenti.


METAR-TAF: